Littleton, Maine
Current Conditions -  °F | °C
As of 7:53 PM on Friday 19 Dec 2014 (Local Time) from KHUL Reporting Station
Clear Clear  
Wind Chill: 10°   Ceiling: Unl
Heat Index: 22°   Visibility: 10mi
Dew Point: 15°   Wind: 12mph
Humidity: 75%   Direction: 350°N
Pressure: 30.03"   Gusts: NA
Location:  46.1163°N, 67.9329°W
Report Text: KHUL 200053Z AUTO 35010KT 10SM CLR M06/M09 A3003 RMK AO2 SLP179 T10561094
Loading
Personal Weather Stations






























Interactive Weather Map New forecast layout! Learn more

10-Day Weather Forecast

Advertisements
Track Severe Weather on mobile